Time;durP1;ratioP1;P1;durP2;ratioP2;P2;SDS_P1;SDS_P2;PMS_P1;PMS_P2;Temp;Humidity;BMP_temperature;BMP_pressure;BME280_temperature;BME280_humidity;BME280_pressure;Samples;Min_cycle;Max_cycle;Signal;HPM_P1;HPM_P2
2022/02/13 00:00:24;;;;;;;10.68;5.30;;;;;;;;;;5073178;28;20105;-71
2022/02/13 00:02:51;;;;;;;8.68;4.68;;;;;;;;;;5071868;28;20391;-71
2022/02/13 00:05:18;;;;;;;9.27;5.13;;;;;;;;;;5071548;28;20428;-71
2022/02/13 00:07:47;;;;;;;11.23;5.55;;;;;;;;;;5111132;28;20048;-71
2022/02/13 00:10:15;;;;;;;9.50;5.40;;;;;;;;;;5112420;28;20420;-71
2022/02/13 00:12:42;;;;;;;8.25;4.97;;;;;;;;;;5112308;28;20135;-71
2022/02/13 00:15:10;;;;;;;9.90;5.43;;;;;;;;;;5097458;28;20052;-71
2022/02/13 00:17:38;;;;;;;8.88;4.63;;;;;;;;;;5071126;28;20098;-70
2022/02/13 00:20:06;;;;;;;8.50;4.30;;;;;;;;;;5072756;28;20040;-70
2022/02/13 00:22:33;;;;;;;8.35;4.32;;;;;;;;;;5071766;28;20056;-69
2022/02/13 00:25:01;;;;;;;9.55;4.35;;;;;;;;;;5071988;28;20414;-70
2022/02/13 00:27:28;;;;;;;7.95;4.20;;;;;;;;;;5071596;28;20434;-69
2022/02/13 00:29:55;;;;;;;7.80;5.13;;;;;;;;;;5071845;28;20404;-69
2022/02/13 00:32:25;;;;;;;8.45;4.90;;;;;;;;;;5073987;28;20055;-69
2022/02/13 00:34:52;;;;;;;7.28;4.07;;;;;;;;;;5091836;28;20056;-69
2022/02/13 00:37:19;;;;;;;7.78;3.90;;;;;;;;;;5091171;28;20053;-70
2022/02/13 00:39:46;;;;;;;7.15;3.90;;;;;;;;;;5091193;28;20048;-69
2022/02/13 00:42:14;;;;;;;9.10;4.75;;;;;;;;;;5091656;28;20052;-70
2022/02/13 00:44:41;;;;;;;9.10;4.10;;;;;;;;;;5091804;28;20067;-70
2022/02/13 00:47:09;;;;;;;8.52;4.60;;;;;;;;;;5090586;28;20048;-70
2022/02/13 00:49:37;;;;;;;11.88;5.10;;;;;;;;;;5091396;28;20048;-70
2022/02/13 00:52:04;;;;;;;7.03;3.67;;;;;;;;;;5083643;28;20045;-70
2022/02/13 00:54:33;;;;;;;8.27;4.00;;;;;;;;;;5087698;28;20048;-70
2022/02/13 00:57:00;;;;;;;7.35;3.40;;;;;;;;;;5091552;28;20094;-70
2022/02/13 00:59:28;;;;;;;6.38;3.20;;;;;;;;;;5091448;28;20052;-70
2022/02/13 01:01:57;;;;;;;5.88;3.45;;;;;;;;;;5091279;28;20056;-70
2022/02/13 01:04:24;;;;;;;8.18;4.18;;;;;;;;;;5091504;28;20058;-70
2022/02/13 01:06:50;;;;;;;6.07;3.65;;;;;;;;;;5091434;28;20048;-70
2022/02/13 01:09:17;;;;;;;11.30;5.35;;;;;;;;;;5091478;28;20058;-70
2022/02/13 01:11:44;;;;;;;6.75;3.47;;;;;;;;;;5091180;28;20131;-71
2022/02/13 01:14:11;;;;;;;6.78;3.15;;;;;;;;;;5091694;28;20052;-70
2022/02/13 01:16:40;;;;;;;8.52;3.65;;;;;;;;;;5091545;28;20048;-71
2022/02/13 01:19:07;;;;;;;7.07;3.38;;;;;;;;;;5090850;28;20044;-70
2022/02/13 01:21:34;;;;;;;7.07;4.05;;;;;;;;;;5087753;28;20040;-70
2022/02/13 01:24:01;;;;;;;7.43;3.63;;;;;;;;;;5092145;28;20408;-70
2022/02/13 01:26:28;;;;;;;8.27;3.83;;;;;;;;;;5092652;28;20087;-70
2022/02/13 01:28:56;;;;;;;7.53;3.55;;;;;;;;;;5092116;28;20051;-70
2022/02/13 01:31:23;;;;;;;6.07;3.63;;;;;;;;;;5092537;28;20048;-70
2022/02/13 01:33:51;;;;;;;6.93;3.47;;;;;;;;;;5092635;28;20480;-70
2022/02/13 01:36:18;;;;;;;7.07;3.72;;;;;;;;;;5091752;28;20044;-70
2022/02/13 01:38:45;;;;;;;7.22;3.83;;;;;;;;;;5092028;28;20063;-70
2022/02/13 01:41:12;;;;;;;7.05;3.80;;;;;;;;;;5092303;28;20545;-70
2022/02/13 01:43:39;;;;;;;9.27;4.22;;;;;;;;;;5092452;28;20485;-70
2022/02/13 01:46:06;;;;;;;7.57;3.97;;;;;;;;;;5092193;28;20568;-70
2022/02/13 01:48:33;;;;;;;8.48;3.58;;;;;;;;;;5091435;28;20508;-70
2022/02/13 01:51:02;;;;;;;5.53;3.78;;;;;;;;;;5092279;28;20058;-70
2022/02/13 01:53:29;;;;;;;6.72;3.58;;;;;;;;;;5092274;28;20055;-70
2022/02/13 01:55:56;;;;;;;8.02;3.65;;;;;;;;;;5092129;28;20415;-70
2022/02/13 01:58:23;;;;;;;5.97;3.45;;;;;;;;;;5092093;28;20704;-70
2022/02/13 02:00:50;;;;;;;7.20;3.60;;;;;;;;;;5092125;28;20048;-70
2022/02/13 02:03:17;;;;;;;6.47;3.58;;;;;;;;;;5092199;28;20145;-70
2022/02/13 02:05:44;;;;;;;7.93;3.53;;;;;;;;;;5092408;28;20048;-70
2022/02/13 02:08:13;;;;;;;6.38;3.80;;;;;;;;;;5092237;28;20477;-70
2022/02/13 02:10:40;;;;;;;7.10;3.30;;;;;;;;;;5092124;28;20052;-70
2022/02/13 02:13:07;;;;;;;5.97;3.28;;;;;;;;;;5092290;28;20052;-70
2022/02/13 02:15:34;;;;;;;4.63;2.53;;;;;;;;;;5092354;28;20054;-69
2022/02/13 02:18:01;;;;;;;5.03;2.67;;;;;;;;;;5092783;28;20055;-70
2022/02/13 02:20:31;;;;;;;5.72;2.67;;;;;;;;;;5093228;28;20078;-69
2022/02/13 02:23:00;;;;;;;5.97;2.30;;;;;;;;;;5095604;28;20051;-69
2022/02/13 02:25:27;;;;;;;4.88;2.25;;;;;;;;;;5093068;28;20272;-69
2022/02/13 02:27:54;;;;;;;6.72;2.70;;;;;;;;;;5092775;28;20048;-69
2022/02/13 02:30:21;;;;;;;5.63;2.67;;;;;;;;;;5092347;28;20048;-69
2022/02/13 02:32:48;;;;;;;5.20;2.60;;;;;;;;;;5092838;28;20048;-69
2022/02/13 02:35:16;;;;;;;6.70;2.50;;;;;;;;;;5093334;28;20485;-69
2022/02/13 02:37:43;;;;;;;4.68;2.50;;;;;;;;;;5091733;28;20086;-69
2022/02/13 02:40:15;;;;;;;4.82;2.58;;;;;;;;;;5091868;28;20059;-69
2022/02/13 02:42:43;;;;;;;3.65;1.85;;;;;;;;;;5091874;28;20048;-69
2022/02/13 02:45:13;;;;;;;4.60;1.98;;;;;;;;;;5092155;28;20066;-69
2022/02/13 02:47:41;;;;;;;4.25;1.90;;;;;;;;;;5092238;28;20052;-70
2022/02/13 02:50:09;;;;;;;5.32;1.70;;;;;;;;;;5091927;28;20463;-69
2022/02/13 02:52:36;;;;;;;3.65;1.58;;;;;;;;;;5092595;28;20044;-69
2022/02/13 02:55:03;;;;;;;3.30;1.50;;;;;;;;;;5092383;28;20063;-71
2022/02/13 02:57:32;;;;;;;3.55;1.58;;;;;;;;;;5091564;28;20052;-70
2022/02/13 02:59:59;;;;;;;2.63;1.40;;;;;;;;;;5094157;28;20044;-70
2022/02/13 03:02:27;;;;;;;6.82;1.70;;;;;;;;;;5095746;28;20044;-70
2022/02/13 03:04:54;;;;;;;3.38;1.20;;;;;;;;;;5095494;28;20070;-71
2022/02/13 03:07:21;;;;;;;4.25;1.77;;;;;;;;;;5095116;28;20044;-71
2022/02/13 03:09:48;;;;;;;5.07;1.80;;;;;;;;;;5095205;28;20054;-71
2022/02/13 03:12:15;;;;;;;4.18;1.90;;;;;;;;;;5095161;28;20062;-71
2022/02/13 03:14:44;;;;;;;4.20;1.58;;;;;;;;;;5095193;28;20052;-71
2022/02/13 03:17:11;;;;;;;5.78;2.47;;;;;;;;;;5095230;28;20481;-71
2022/02/13 03:19:38;;;;;;;3.30;1.40;;;;;;;;;;5094992;28;20054;-70
2022/02/13 03:22:06;;;;;;;3.05;1.50;;;;;;;;;;5094953;28;20048;-71
2022/02/13 03:24:33;;;;;;;8.23;2.30;;;;;;;;;;5095025;28;20509;-71
2022/02/13 03:27:00;;;;;;;4.18;1.95;;;;;;;;;;5094483;28;20052;-70
2022/02/13 03:29:27;;;;;;;4.93;1.95;;;;;;;;;;5094812;28;20063;-71
2022/02/13 03:31:55;;;;;;;6.68;3.22;;;;;;;;;;5094748;28;20048;-71
2022/02/13 03:34:22;;;;;;;6.30;2.75;;;;;;;;;;5094827;28;20075;-71
2022/02/13 03:36:51;;;;;;;5.50;2.70;;;;;;;;;;5094677;28;20417;-71
2022/02/13 03:39:18;;;;;;;5.32;3.40;;;;;;;;;;5094718;28;20048;-71
2022/02/13 03:41:45;;;;;;;6.50;3.10;;;;;;;;;;5095077;28;20044;-70
2022/02/13 03:44:12;;;;;;;5.82;3.25;;;;;;;;;;5095042;28;20109;-71
2022/02/13 03:46:39;;;;;;;5.00;2.97;;;;;;;;;;5094751;28;20052;-70
2022/02/13 03:49:08;;;;;;;5.95;3.28;;;;;;;;;;5094547;28;20048;-71
2022/02/13 03:51:35;;;;;;;6.38;2.72;;;;;;;;;;5095165;28;20052;-70
2022/02/13 03:54:02;;;;;;;5.80;3.00;;;;;;;;;;5095081;28;20489;-71
2022/02/13 03:56:29;;;;;;;6.45;2.83;;;;;;;;;;5094616;28;20048;-70
2022/02/13 03:58:56;;;;;;;4.97;2.58;;;;;;;;;;5094751;28;20044;-71
2022/02/13 04:01:23;;;;;;;6.13;3.15;;;;;;;;;;5094852;28;20070;-70
2022/02/13 04:03:50;;;;;;;6.22;3.22;;;;;;;;;;5094571;28;20565;-71
2022/02/13 04:06:18;;;;;;;6.97;3.00;;;;;;;;;;5094565;28;20044;-71
2022/02/13 04:08:45;;;;;;;5.32;2.80;;;;;;;;;;5094484;28;20489;-70
2022/02/13 04:11:12;;;;;;;5.15;2.10;;;;;;;;;;5094175;28;20475;-71
2022/02/13 04:13:40;;;;;;;6.05;2.30;;;;;;;;;;5094057;28;20056;-71
2022/02/13 04:16:08;;;;;;;5.60;2.47;;;;;;;;;;5094146;28;20094;-71
2022/02/13 04:18:35;;;;;;;6.68;2.20;;;;;;;;;;5093782;28;20048;-70
2022/02/13 04:21:02;;;;;;;16.45;8.02;;;;;;;;;;5094121;28;20501;-71
2022/02/13 04:23:31;;;;;;;5.72;2.20;;;;;;;;;;5094235;28;20051;-70
2022/02/13 04:25:59;;;;;;;3.75;1.55;;;;;;;;;;5093830;28;20087;-70
2022/02/13 04:28:26;;;;;;;3.10;1.35;;;;;;;;;;5093478;28;20123;-71
2022/02/13 04:30:53;;;;;;;2.35;1.00;;;;;;;;;;5093527;28;20052;-70
2022/02/13 04:33:20;;;;;;;3.03;1.30;;;;;;;;;;5093697;28;20050;-70
2022/02/13 04:35:47;;;;;;;1.90;0.90;;;;;;;;;;5093585;28;20052;-71
2022/02/13 04:38:14;;;;;;;3.13;1.30;;;;;;;;;;5093616;28;20400;-70
2022/02/13 04:40:43;;;;;;;3.38;1.42;;;;;;;;;;5094255;28;20051;-69
2022/02/13 04:43:10;;;;;;;4.38;1.40;;;;;;;;;;5094651;28;20409;-70
2022/02/13 04:45:38;;;;;;;3.47;1.20;;;;;;;;;;5093582;28;20413;-70
2022/02/13 04:48:05;;;;;;;2.83;1.15;;;;;;;;;;5094997;28;20499;-70
2022/02/13 04:50:32;;;;;;;3.95;1.50;;;;;;;;;;5093645;28;20052;-70
2022/02/13 04:52:59;;;;;;;2.80;1.23;;;;;;;;;;5093434;28;20390;-70
2022/02/13 04:55:26;;;;;;;2.55;0.98;;;;;;;;;;5093185;28;20048;-70
2022/02/13 04:57:55;;;;;;;3.03;1.20;;;;;;;;;;5093214;28;20125;-70
2022/02/13 05:00:22;;;;;;;2.80;1.50;;;;;;;;;;5092955;28;20557;-70
2022/02/13 05:02:49;;;;;;;4.40;1.65;;;;;;;;;;5093111;28;20047;-70
2022/02/13 05:05:16;;;;;;;6.00;2.20;;;;;;;;;;5093092;28;20058;-70
2022/02/13 05:07:43;;;;;;;6.20;2.35;;;;;;;;;;5092758;28;20052;-70
2022/02/13 05:10:11;;;;;;;6.18;2.33;;;;;;;;;;5092888;28;20048;-70
2022/02/13 05:12:38;;;;;;;4.00;1.95;;;;;;;;;;5092773;28;20050;-70
2022/02/13 05:15:08;;;;;;;4.00;1.50;;;;;;;;;;5092859;28;20044;-70
2022/02/13 05:17:36;;;;;;;4.57;1.90;;;;;;;;;;5092328;28;20054;-70
2022/02/13 05:20:04;;;;;;;3.30;1.70;;;;;;;;;;5092985;28;20044;-70
2022/02/13 05:22:31;;;;;;;3.05;1.35;;;;;;;;;;5091829;28;20051;-70
2022/02/13 05:24:58;;;;;;;5.18;1.30;;;;;;;;;;5092564;28;20471;-70
2022/02/13 05:27:25;;;;;;;3.45;1.40;;;;;;;;;;5092517;28;20067;-69
2022/02/13 05:29:52;;;;;;;2.78;0.90;;;;;;;;;;5092501;28;20054;-70
2022/02/13 05:32:21;;;;;;;4.10;1.25;;;;;;;;;;5092451;28;20051;-69
2022/02/13 05:34:47;;;;;;;3.28;1.20;;;;;;;;;;5092335;28;20165;-70
2022/02/13 05:37:16;;;;;;;3.05;1.30;;;;;;;;;;5092343;28;20052;-70
2022/02/13 05:39:44;;;;;;;2.75;1.02;;;;;;;;;;5092072;28;20054;-69
2022/02/13 05:42:11;;;;;;;2.20;0.90;;;;;;;;;;5092249;28;20562;-69
2022/02/13 05:44:38;;;;;;;3.28;1.20;;;;;;;;;;5092218;28;20123;-70
2022/02/13 05:47:06;;;;;;;2.17;0.98;;;;;;;;;;5092345;28;20047;-70
2022/02/13 05:49:35;;;;;;;4.28;1.10;;;;;;;;;;5092318;28;20432;-69
2022/02/13 05:52:02;;;;;;;2.40;1.00;;;;;;;;;;5092424;28;20708;-70
2022/02/13 05:54:29;;;;;;;2.90;1.40;;;;;;;;;;5092164;28;20048;-69
2022/02/13 05:56:56;;;;;;;3.17;1.13;;;;;;;;;;5091955;28;20063;-70
2022/02/13 05:59:23;;;;;;;4.00;1.50;;;;;;;;;;5092027;28;20048;-70
2022/02/13 06:01:52;;;;;;;3.17;1.50;;;;;;;;;;5092072;28;20059;-70
2022/02/13 06:04:20;;;;;;;3.78;1.50;;;;;;;;;;5092452;28;20432;-69
2022/02/13 06:06:48;;;;;;;3.00;1.58;;;;;;;;;;5091825;28;20048;-69
2022/02/13 06:09:15;;;;;;;5.70;1.77;;;;;;;;;;5091896;28;20044;-69
2022/02/13 06:11:42;;;;;;;3.80;1.48;;;;;;;;;;5091834;28;20051;-69
2022/02/13 06:14:09;;;;;;;3.58;1.63;;;;;;;;;;5091884;28;20390;-70
2022/02/13 06:16:37;;;;;;;3.85;2.22;;;;;;;;;;5092004;28;20048;-70
2022/02/13 06:19:04;;;;;;;3.80;1.92;;;;;;;;;;5091826;28;20052;-69
2022/02/13 06:21:31;;;;;;;4.03;1.60;;;;;;;;;;5091860;28;20055;-69
2022/02/13 06:24:00;;;;;;;4.03;1.85;;;;;;;;;;5092300;28;20048;-69
2022/02/13 06:26:28;;;;;;;4.35;1.85;;;;;;;;;;5092342;28;20057;-69
2022/02/13 06:28:56;;;;;;;3.67;1.83;;;;;;;;;;5093446;28;20129;-69
2022/02/13 06:31:23;;;;;;;4.68;1.60;;;;;;;;;;5092732;28;20044;-69
2022/02/13 06:33:50;;;;;;;2.55;1.38;;;;;;;;;;5093166;28;20062;-69
2022/02/13 06:36:17;;;;;;;3.88;1.90;;;;;;;;;;5096349;28;20063;-69
2022/02/13 06:38:44;;;;;;;5.78;2.85;;;;;;;;;;5096102;28;20052;-69
2022/02/13 06:41:12;;;;;;;4.60;1.63;;;;;;;;;;5096606;28;20047;-69
2022/02/13 06:43:39;;;;;;;3.97;1.95;;;;;;;;;;5096763;28;20485;-69
2022/02/13 06:46:06;;;;;;;3.72;1.40;;;;;;;;;;5096401;28;20051;-69
2022/02/13 06:48:34;;;;;;;3.65;1.38;;;;;;;;;;5096287;28;20058;-69
2022/02/13 06:51:01;;;;;;;2.97;1.10;;;;;;;;;;5096536;28;20128;-70
2022/02/13 06:53:28;;;;;;;3.80;1.42;;;;;;;;;;5096015;28;20063;-69
2022/02/13 06:55:55;;;;;;;2.33;1.20;;;;;;;;;;5095602;28;20056;-71
2022/02/13 06:58:24;;;;;;;3.13;1.10;;;;;;;;;;5095923;28;20048;-69
2022/02/13 07:00:51;;;;;;;2.03;1.00;;;;;;;;;;5096584;28;20052;-69
2022/02/13 07:03:18;;;;;;;3.83;1.40;;;;;;;;;;5096900;28;20043;-70
2022/02/13 07:05:45;;;;;;;2.40;1.00;;;;;;;;;;5096353;28;20135;-70
2022/02/13 07:08:12;;;;;;;2.92;1.00;;;;;;;;;;5095380;28;20048;-70
2022/02/13 07:10:39;;;;;;;2.38;1.23;;;;;;;;;;5095240;28;20497;-69
2022/02/13 07:13:06;;;;;;;3.42;1.10;;;;;;;;;;5095181;28;20040;-70
2022/02/13 07:15:37;;;;;;;3.15;1.10;;;;;;;;;;5095646;28;20044;-70
2022/02/13 07:18:04;;;;;;;2.50;1.08;;;;;;;;;;5095042;28;20056;-70
2022/02/13 07:20:32;;;;;;;2.50;1.15;;;;;;;;;;5094897;28;20044;-70
2022/02/13 07:22:59;;;;;;;2.83;1.20;;;;;;;;;;5094753;28;20044;-70
2022/02/13 07:25:26;;;;;;;1.73;1.10;;;;;;;;;;5094999;28;20044;-69
2022/02/13 07:27:53;;;;;;;3.17;1.33;;;;;;;;;;5094690;28;20135;-71
2022/02/13 07:30:19;;;;;;;5.57;1.60;;;;;;;;;;5094926;28;20048;-70
2022/02/13 07:32:48;;;;;;;3.08;1.20;;;;;;;;;;5095147;28;20047;-70
2022/02/13 07:35:16;;;;;;;2.35;1.20;;;;;;;;;;5095020;28;20414;-69
2022/02/13 07:37:43;;;;;;;3.90;1.40;;;;;;;;;;5094487;28;20048;-69
2022/02/13 07:40:12;;;;;;;3.67;1.38;;;;;;;;;;5094659;28;20087;-69
2022/02/13 07:42:39;;;;;;;3.30;1.33;;;;;;;;;;5094361;28;20428;-69
2022/02/13 07:45:07;;;;;;;1.77;0.90;;;;;;;;;;5094133;28;20044;-70
2022/02/13 07:47:34;;;;;;;2.97;1.25;;;;;;;;;;5093603;28;20044;-70
2022/02/13 07:50:03;;;;;;;1.98;1.02;;;;;;;;;;5094242;28;20052;-69
2022/02/13 07:52:30;;;;;;;3.75;1.17;;;;;;;;;;5094305;28;20043;-70
2022/02/13 07:54:57;;;;;;;2.95;1.02;;;;;;;;;;5094423;28;20109;-69
2022/02/13 07:57:24;;;;;;;1.77;1.05;;;;;;;;;;5093920;28;20404;-70
2022/02/13 07:59:51;;;;;;;2.22;0.82;;;;;;;;;;5094232;28;20058;-69
2022/02/13 08:02:18;;;;;;;2.47;0.95;;;;;;;;;;5094532;28;20056;-70
2022/02/13 08:04:45;;;;;;;2.50;1.30;;;;;;;;;;5095252;28;20059;-69
2022/02/13 08:07:13;;;;;;;2.78;1.30;;;;;;;;;;5095042;28;20056;-69
2022/02/13 08:09:42;;;;;;;4.18;1.45;;;;;;;;;;5094614;28;20044;-69
2022/02/13 08:12:10;;;;;;;3.03;1.25;;;;;;;;;;5095041;28;20298;-69
2022/02/13 08:14:36;;;;;;;3.53;2.03;;;;;;;;;;5095313;28;20044;-69
2022/02/13 08:17:04;;;;;;;4.32;1.80;;;;;;;;;;5094801;28;20048;-68
2022/02/13 08:19:35;;;;;;;3.38;1.30;;;;;;;;;;5094292;28;20098;-69
2022/02/13 08:22:03;;;;;;;4.07;1.70;;;;;;;;;;5094633;28;20049;-69
2022/02/13 08:24:31;;;;;;;3.40;1.38;;;;;;;;;;5095064;28;20093;-69
2022/02/13 08:26:58;;;;;;;3.78;1.70;;;;;;;;;;5094830;28;20048;-69
2022/02/13 08:29:25;;;;;;;4.90;1.83;;;;;;;;;;5094743;28;20040;-69
2022/02/13 08:31:52;;;;;;;4.20;1.65;;;;;;;;;;5094589;28;20432;-69
2022/02/13 08:34:19;;;;;;;4.95;1.70;;;;;;;;;;5093997;28;20047;-69
2022/02/13 08:36:46;;;;;;;5.25;1.80;;;;;;;;;;5094326;28;20058;-68
2022/02/13 08:39:13;;;;;;;4.28;1.80;;;;;;;;;;5094301;28;20548;-69
2022/02/13 08:41:41;;;;;;;5.32;1.77;;;;;;;;;;5093910;28;20059;-69
2022/02/13 08:44:08;;;;;;;5.35;1.77;;;;;;;;;;5094118;28;20044;-69
2022/02/13 08:46:36;;;;;;;4.80;1.70;;;;;;;;;;5093808;28;20048;-69
2022/02/13 08:49:03;;;;;;;4.13;1.63;;;;;;;;;;5092981;28;20522;-69
2022/02/13 08:51:30;;;;;;;4.90;2.20;;;;;;;;;;5094096;28;20417;-69
2022/02/13 08:53:57;;;;;;;3.25;1.58;;;;;;;;;;5093796;28;20531;-69
2022/02/13 08:56:24;;;;;;;3.13;1.55;;;;;;;;;;5094078;28;20507;-69
2022/02/13 08:58:55;;;;;;;4.45;1.83;;;;;;;;;;5094066;28;20044;-69
2022/02/13 09:01:22;;;;;;;3.90;1.50;;;;;;;;;;5094189;28;20044;-69
2022/02/13 09:03:49;;;;;;;6.55;3.10;;;;;;;;;;5094079;28;20300;-71
2022/02/13 09:06:16;;;;;;;4.05;1.92;;;;;;;;;;5094475;28;20059;-69
2022/02/13 09:08:43;;;;;;;2.97;1.58;;;;;;;;;;5093850;28;20048;-70
2022/02/13 09:11:10;;;;;;;2.85;1.20;;;;;;;;;;5094167;28;20044;-69
2022/02/13 09:13:37;;;;;;;2.92;1.50;;;;;;;;;;5093931;28;20083;-70
2022/02/13 09:16:06;;;;;;;4.95;1.48;;;;;;;;;;5093924;28;20125;-69
2022/02/13 09:18:33;;;;;;;3.92;1.40;;;;;;;;;;5093848;28;20398;-69
2022/02/13 09:21:01;;;;;;;3.22;1.42;;;;;;;;;;5094145;28;20393;-70
2022/02/13 09:23:30;;;;;;;2.65;1.30;;;;;;;;;;5094136;28;20420;-70
2022/02/13 09:25:57;;;;;;;3.67;1.55;;;;;;;;;;5093644;28;20062;-70
2022/02/13 09:28:25;;;;;;;4.78;1.50;;;;;;;;;;5093312;28;20050;-69
2022/02/13 09:30:52;;;;;;;3.10;1.17;;;;;;;;;;5093114;28;20064;-70
2022/02/13 09:33:20;;;;;;;4.95;1.70;;;;;;;;;;5093012;28;20052;-71
2022/02/13 09:35:47;;;;;;;4.28;1.60;;;;;;;;;;5092710;28;20152;-71
2022/02/13 09:38:16;;;;;;;4.30;1.98;;;;;;;;;;5092426;28;20048;-70
2022/02/13 09:40:47;;;;;;;4.65;1.70;;;;;;;;;;5092552;28;20527;-71
2022/02/13 09:43:15;;;;;;;4.07;1.50;;;;;;;;;;5092395;28;20048;-71
2022/02/13 09:45:45;;;;;;;2.75;1.40;;;;;;;;;;5092521;28;20516;-70
2022/02/13 09:48:16;;;;;;;4.78;1.98;;;;;;;;;;5092219;28;20052;-71
2022/02/13 09:50:44;;;;;;;5.22;2.10;;;;;;;;;;5092792;28;20044;-71
2022/02/13 09:53:11;;;;;;;4.53;2.10;;;;;;;;;;5092079;28;20135;-70
2022/02/13 09:55:38;;;;;;;5.32;1.73;;;;;;;;;;5091765;28;20044;-70
2022/02/13 09:58:05;;;;;;;7.20;3.65;;;;;;;;;;5091940;28;20123;-71
2022/02/13 10:00:56;;;;;;;4.35;2.38;;;;;;;;;;5091932;28;20097;-70
2022/02/13 10:03:25;;;;;;;6.00;2.80;;;;;;;;;;5091812;28;20048;-69
2022/02/13 10:05:55;;;;;;;3.63;1.55;;;;;;;;;;5091769;28;20134;-70
2022/02/13 10:08:30;;;;;;;6.53;2.30;;;;;;;;;;5088953;28;20044;-69
2022/02/13 10:11:11;;;;;;;4.15;1.70;;;;;;;;;;5091686;28;20276;-69
2022/02/13 10:13:47;;;;;;;;;;;;;;;;;;5092214;28;20044;-69
2022/02/13 10:16:19;;;;;;;4.50;2.08;;;;;;;;;;5091783;28;19931;-70
2022/02/13 10:18:54;;;;;;;3.38;1.95;;;;;;;;;;5089257;28;20052;-69
2022/02/13 10:21:34;;;;;;;7.25;2.30;;;;;;;;;;5091520;28;20052;-69
2022/02/13 10:24:35;;;;;;;7.63;2.70;;;;;;;;;;5088904;28;20080;-69
2022/02/13 10:27:11;;;;;;;7.45;2.58;;;;;;;;;;4990179;28;20062;-70
2022/02/13 10:29:40;;;;;;;3.67;2.35;;;;;;;;;;4990293;28;20414;-69
2022/02/13 10:32:15;;;;;;;5.88;2.50;;;;;;;;;;5036287;28;20062;-69
2022/02/13 10:34:58;;;;;;;5.30;2.30;;;;;;;;;;5091689;28;20044;-69
2022/02/13 10:37:44;;;;;;;5.85;2.33;;;;;;;;;;5090851;28;20145;-70
2022/02/13 10:40:13;;;;;;;6.72;2.50;;;;;;;;;;5089387;28;20044;-67
2022/02/13 10:42:41;;;;;;;6.57;2.72;;;;;;;;;;5091197;28;20052;-67
2022/02/13 10:45:22;;;;;;;5.25;2.70;;;;;;;;;;5091143;28;20036;-68
2022/02/13 10:47:52;;;;;;;5.15;2.45;;;;;;;;;;5091130;28;20061;-68
2022/02/13 10:50:21;;;;;;;5.18;2.72;;;;;;;;;;5091309;28;20135;-68
2022/02/13 10:52:51;;;;;;;7.30;3.22;;;;;;;;;;5091906;28;20452;-67
2022/02/13 10:55:19;;;;;;;8.23;3.20;;;;;;;;;;5091594;28;20044;-69
2022/02/13 10:57:46;;;;;;;49.20;22.27;;;;;;;;;;5091611;28;20052;-67
2022/02/13 11:00:15;;;;;;;81.10;40.53;;;;;;;;;;5091673;28;20044;-75
2022/02/13 11:02:46;;;;;;;16.85;9.30;;;;;;;;;;5092637;28;20090;-69
2022/02/13 11:05:13;;;;;;;;;;;;;;;;;;5091981;28;20052;-68
2022/02/13 11:07:43;;;;;;;20.10;10.98;;;;;;;;;;5091536;28;19927;-69
2022/02/13 11:10:16;;;;;;;18.05;10.27;;;;;;;;;;5091421;28;20094;-70
2022/02/13 11:12:44;;;;;;;14.32;5.43;;;;;;;;;;5090657;28;20074;-69
2022/02/13 11:15:17;;;;;;;8.55;3.08;;;;;;;;;;5091693;28;20048;-69
2022/02/13 11:17:46;;;;;;;7.75;3.33;;;;;;;;;;5091611;28;20138;-69
2022/02/13 11:20:15;;;;;;;9.20;3.65;;;;;;;;;;5091493;28;20055;-69
2022/02/13 11:22:42;;;;;;;6.75;3.30;;;;;;;;;;5094892;28;20488;-69
2022/02/13 11:25:11;;;;;;;7.63;3.40;;;;;;;;;;5095320;28;20126;-69
2022/02/13 11:27:53;;;;;;;5.78;2.85;;;;;;;;;;5094872;28;20066;-70
2022/02/13 11:30:41;;;;;;;5.75;2.95;;;;;;;;;;5093925;28;20051;-69
2022/02/13 11:33:10;;;;;;;5.80;2.70;;;;;;;;;;5092444;28;20067;-69
2022/02/13 11:35:53;;;;;;;8.73;5.28;;;;;;;;;;5094747;28;20047;-69
2022/02/13 11:38:55;;;;;;;7.05;3.92;;;;;;;;;;5091136;28;20079;-69
2022/02/13 11:42:07;;;;;;;6.35;3.17;;;;;;;;;;5092420;28;20047;-69
2022/02/13 11:44:54;;;;;;;10.18;3.85;;;;;;;;;;5090606;28;20043;-68
2022/02/13 11:47:40;;;;;;;7.68;3.42;;;;;;;;;;5094695;28;20105;-67
2022/02/13 11:50:28;;;;;;;7.50;3.90;;;;;;;;;;5095290;28;20048;-67
2022/02/13 11:53:01;;;;;;;8.23;3.80;;;;;;;;;;5094980;28;20058;-68
2022/02/13 11:55:31;;;;;;;8.27;4.40;;;;;;;;;;5095486;28;20093;-67
2022/02/13 11:58:00;;;;;;;6.68;3.50;;;;;;;;;;5090979;28;20123;-67
2022/02/13 12:00:51;;;;;;;6.40;3.38;;;;;;;;;;5093834;28;20044;-67
2022/02/13 12:03:28;;;;;;;10.18;3.33;;;;;;;;;;5090105;28;20044;-67
2022/02/13 12:06:31;;;;;;;8.38;3.70;;;;;;;;;;5091087;28;20090;-67
2022/02/13 12:09:00;;;;;;;8.00;4.57;;;;;;;;;;5091695;28;20054;-67
2022/02/13 12:11:31;;;;;;;9.25;3.55;;;;;;;;;;5093726;28;20124;-66
2022/02/13 12:13:59;;;;;;;7.03;3.63;;;;;;;;;;5093223;28;20052;-67
2022/02/13 12:16:27;;;;;;;6.68;2.90;;;;;;;;;;5093409;28;20056;-68
2022/02/13 12:18:54;;;;;;;8.20;4.40;;;;;;;;;;5093202;28;20106;-67
2022/02/13 12:21:27;;;;;;;7.40;3.78;;;;;;;;;;5093568;28;20046;-68
2022/02/13 12:24:01;;;;;;;6.30;3.20;;;;;;;;;;5093380;28;20051;-67
2022/02/13 12:26:30;;;;;;;4.75;2.92;;;;;;;;;;5093294;28;20048;-67
2022/02/13 12:28:58;;;;;;;12.05;6.70;;;;;;;;;;5093512;28;20143;-67
2022/02/13 12:31:27;;;;;;;8.20;5.63;;;;;;;;;;5106505;28;20059;-66
2022/02/13 12:33:55;;;;;;;6.72;2.60;;;;;;;;;;5113994;28;20059;-67
2022/02/13 12:36:24;;;;;;;7.18;2.78;;;;;;;;;;5113984;28;20075;-67
2022/02/13 12:38:55;;;;;;;5.70;3.20;;;;;;;;;;5094449;28;20403;-67
2022/02/13 12:41:26;;;;;;;5.47;2.70;;;;;;;;;;5094047;28;20079;-67
2022/02/13 12:43:55;;;;;;;8.13;2.60;;;;;;;;;;5089568;28;20386;-67
2022/02/13 12:46:23;;;;;;;8.13;3.28;;;;;;;;;;5092461;28;20174;-67
2022/02/13 12:48:51;;;;;;;8.90;3.78;;;;;;;;;;5093231;28;20456;-67
2022/02/13 12:51:28;;;;;;;7.90;3.85;;;;;;;;;;5073006;28;20048;-67
2022/02/13 12:53:58;;;;;;;7.55;2.97;;;;;;;;;;5080474;28;20138;-67
2022/02/13 12:56:26;;;;;;;5.30;2.50;;;;;;;;;;5078356;28;20575;-67
2022/02/13 12:58:55;;;;;;;6.95;3.28;;;;;;;;;;5072777;28;20048;-67
2022/02/13 13:01:32;;;;;;;8.40;2.85;;;;;;;;;;5072696;28;20102;-67
2022/02/13 13:04:00;;;;;;;6.68;3.60;;;;;;;;;;5087360;28;20541;-67
2022/02/13 13:06:29;;;;;;;6.97;2.92;;;;;;;;;;5092532;28;20098;-66
2022/02/13 13:08:59;;;;;;;6.78;2.83;;;;;;;;;;5093413;28;20052;-67
2022/02/13 13:11:31;;;;;;;6.00;2.53;;;;;;;;;;5077051;28;20084;-67
2022/02/13 13:14:09;;;;;;;6.18;2.53;;;;;;;;;;5072261;28;20048;-67
2022/02/13 13:16:36;;;;;;;5.93;2.97;;;;;;;;;;5072191;28;20131;-67
2022/02/13 13:19:04;;;;;;;4.75;2.67;;;;;;;;;;5072128;28;20041;-67
2022/02/13 13:21:43;;;;;;;7.10;2.97;;;;;;;;;;5071739;28;20040;-67
2022/02/13 13:24:12;;;;;;;4.22;2.20;;;;;;;;;;5072232;28;20041;-67
2022/02/13 13:26:41;;;;;;;7.43;2.40;;;;;;;;;;5072829;28;20051;-68
2022/02/13 13:29:22;;;;;;;4.45;2.20;;;;;;;;;;5072257;28;20044;-68
2022/02/13 13:31:57;;;;;;;5.55;2.15;;;;;;;;;;5084234;28;20105;-66
2022/02/13 13:34:25;;;;;;;4.82;2.20;;;;;;;;;;5089424;28;20394;-67
2022/02/13 13:36:53;;;;;;;4.95;2.03;;;;;;;;;;5092069;28;20462;-68
2022/02/13 13:39:25;;;;;;;4.78;2.30;;;;;;;;;;5091043;28;20047;-67
2022/02/13 13:41:53;;;;;;;5.45;3.28;;;;;;;;;;5091778;28;20389;-68
2022/02/13 13:44:23;;;;;;;4.88;2.92;;;;;;;;;;5090048;28;20044;-68
2022/02/13 13:46:50;;;;;;;4.68;1.92;;;;;;;;;;5090781;28;20105;-67
2022/02/13 13:49:18;;;;;;;4.90;2.05;;;;;;;;;;5090512;28;20044;-67
2022/02/13 13:51:46;;;;;;;6.30;2.50;;;;;;;;;;5091013;28;20120;-67
2022/02/13 13:54:16;;;;;;;5.18;2.70;;;;;;;;;;5090713;28;20171;-67
2022/02/13 13:56:43;;;;;;;4.50;2.00;;;;;;;;;;5090759;28;20127;-68
2022/02/13 13:59:11;;;;;;;4.60;2.05;;;;;;;;;;5090791;28;20416;-68
2022/02/13 14:01:41;;;;;;;4.70;1.83;;;;;;;;;;5085643;28;20048;-69
2022/02/13 14:04:09;;;;;;;;;;;;;;;;;;5071075;28;20045;-68
2022/02/13 14:06:36;;;;;;;5.57;2.00;;;;;;;;;;5070443;28;19925;-68
2022/02/13 14:09:04;;;;;;;6.25;2.00;;;;;;;;;;5070672;28;20048;-68
2022/02/13 14:11:31;;;;;;;5.65;1.95;;;;;;;;;;5070703;28;20127;-68
2022/02/13 14:13:59;;;;;;;7.53;2.20;;;;;;;;;;5070647;28;20067;-68
2022/02/13 14:16:26;;;;;;;5.70;2.17;;;;;;;;;;5074989;28;20056;-68
2022/02/13 14:18:53;;;;;;;6.05;2.40;;;;;;;;;;5070674;28;20496;-68
2022/02/13 14:21:21;;;;;;;7.55;3.03;;;;;;;;;;5070237;28;20135;-68
2022/02/13 14:23:48;;;;;;;5.78;2.30;;;;;;;;;;5070755;28;20379;-68
2022/02/13 14:26:16;;;;;;;4.85;2.30;;;;;;;;;;5069884;28;20048;-68
2022/02/13 14:28:43;;;;;;;6.80;2.08;;;;;;;;;;5069834;28;20135;-68
2022/02/13 14:31:10;;;;;;;4.60;1.80;;;;;;;;;;5070033;28;20052;-68
2022/02/13 14:33:37;;;;;;;4.85;2.15;;;;;;;;;;5069998;28;20088;-68
2022/02/13 14:36:04;;;;;;;5.45;2.10;;;;;;;;;;5070258;28;20049;-68
2022/02/13 14:38:32;;;;;;;4.57;2.00;;;;;;;;;;5070041;28;20296;-68
2022/02/13 14:40:59;;;;;;;4.38;1.92;;;;;;;;;;5070271;28;20076;-67
2022/02/13 14:43:28;;;;;;;5.97;1.98;;;;;;;;;;5089895;28;20057;-67
2022/02/13 14:45:55;;;;;;;10.35;2.53;;;;;;;;;;5110521;28;20123;-68
2022/02/13 14:48:22;;;;;;;7.72;2.30;;;;;;;;;;5110662;28;20058;-67
2022/02/13 14:50:49;;;;;;;5.40;1.90;;;;;;;;;;5110573;28;20052;-67
2022/02/13 14:53:16;;;;;;;4.50;2.20;;;;;;;;;;5110580;28;20250;-68